createdAt,value
2017-12-27T00:00:04.275Z,1.90
2017-12-27T00:02:37.924Z,2.20
2017-12-27T00:05:11.605Z,2.05
2017-12-27T00:07:45.985Z,2.05
2017-12-27T00:10:20.591Z,2.20
2017-12-27T00:12:56.107Z,2.53
2017-12-27T00:15:29.679Z,2.42
2017-12-27T00:18:03.308Z,2.25
2017-12-27T00:20:36.903Z,2.95
2017-12-27T00:23:10.531Z,1.50
2017-12-27T00:28:43.040Z,1.73
2017-12-27T00:31:12.394Z,2.90
2017-12-27T00:33:40.379Z,1.83
2017-12-27T00:36:08.367Z,1.33
2017-12-27T00:38:36.481Z,2.28
2017-12-27T00:41:04.476Z,2.85
2017-12-27T00:43:32.496Z,2.03
2017-12-27T00:46:00.875Z,1.70
2017-12-27T00:48:28.862Z,1.65
2017-12-27T00:50:56.839Z,2.40
2017-12-27T00:53:24.876Z,2.67
2017-12-27T00:55:53.635Z,2.05
2017-12-27T00:58:21.615Z,1.60
2017-12-27T01:00:49.667Z,2.22
2017-12-27T01:03:17.689Z,2.10
2017-12-27T01:05:45.651Z,2.10
2017-12-27T01:08:13.987Z,2.15
2017-12-27T01:10:43.224Z,1.92
2017-12-27T01:13:11.203Z,2.20
2017-12-27T01:15:39.240Z,2.15
2017-12-27T01:18:07.228Z,2.72
2017-12-27T01:20:35.203Z,2.05
2017-12-27T01:23:03.271Z,2.33
2017-12-27T01:25:31.256Z,2.92
2017-12-27T01:27:59.299Z,2.47
2017-12-27T01:30:28.115Z,2.58
2017-12-27T01:32:56.161Z,1.80
2017-12-27T01:35:24.232Z,2.40
2017-12-27T01:37:52.269Z,2.67
2017-12-27T01:40:20.312Z,2.28
2017-12-27T01:42:49.143Z,2.90
2017-12-27T01:45:17.941Z,2.28
2017-12-27T01:47:46.780Z,2.37
2017-12-27T01:50:14.815Z,1.62
2017-12-27T01:52:42.844Z,2.20
2017-12-27T01:55:10.916Z,2.75
2017-12-27T01:57:38.948Z,3.08
2017-12-27T02:00:07.012Z,2.30
2017-12-27T02:02:35.072Z,2.35
2017-12-27T02:05:03.096Z,2.53
2017-12-27T02:07:31.157Z,2.75
2017-12-27T02:09:59.952Z,3.50
2017-12-27T02:12:28.009Z,4.30
2017-12-27T02:14:56.034Z,3.35
2017-12-27T02:17:24.113Z,3.35
2017-12-27T02:19:52.143Z,3.03
2017-12-27T02:22:20.932Z,3.15
2017-12-27T02:24:48.993Z,3.05
2017-12-27T02:27:17.017Z,2.85
2017-12-27T02:29:45.879Z,2.22
2017-12-27T02:32:13.913Z,3.40
2017-12-27T02:34:41.952Z,2.83
2017-12-27T02:37:10.004Z,2.75
2017-12-27T02:42:46.078Z,3.58
2017-12-27T02:45:14.992Z,3.12
2017-12-27T02:47:43.037Z,3.25
2017-12-27T02:50:11.077Z,3.17
2017-12-27T02:52:39.135Z,2.78
2017-12-27T02:55:07.984Z,3.28
2017-12-27T02:57:36.792Z,2.53
2017-12-27T03:00:06.418Z,2.67
2017-12-27T03:02:34.464Z,2.50
2017-12-27T03:05:02.503Z,2.70
2017-12-27T03:07:30.536Z,3.45
2017-12-27T03:09:58.587Z,2.55
2017-12-27T03:12:27.395Z,3.42
2017-12-27T03:14:56.220Z,2.85
2017-12-27T03:17:24.828Z,3.05
2017-12-27T03:19:52.852Z,3.30
2017-12-27T03:22:20.913Z,3.70
2017-12-27T03:24:48.944Z,4.35
2017-12-27T03:27:17.768Z,2.97
2017-12-27T03:29:45.800Z,2.97
2017-12-27T03:32:13.850Z,4.22
2017-12-27T03:34:41.896Z,4.10
2017-12-27T03:37:10.709Z,4.37
2017-12-27T03:39:38.792Z,4.28
2017-12-27T03:42:06.839Z,2.70
2017-12-27T03:44:34.929Z,3.60
2017-12-27T03:47:02.976Z,3.03
2017-12-27T03:49:31.017Z,3.87
2017-12-27T03:51:59.852Z,3.35
2017-12-27T03:54:27.876Z,3.65
2017-12-27T03:56:55.904Z,3.67
2017-12-27T03:59:23.948Z,3.20
2017-12-27T04:01:52.012Z,2.40
2017-12-27T04:04:20.103Z,2.70
2017-12-27T04:06:48.141Z,3.12
2017-12-27T04:09:16.183Z,3.53
2017-12-27T04:11:44.225Z,4.43
2017-12-27T04:14:12.248Z,2.97
2017-12-27T04:16:40.316Z,3.53
2017-12-27T04:19:08.354Z,3.85
2017-12-27T04:21:36.376Z,2.92
2017-12-27T04:24:04.440Z,3.60
2017-12-27T04:26:32.471Z,3.28
2017-12-27T04:29:00.520Z,3.47
2017-12-27T04:31:28.561Z,3.53
2017-12-27T04:33:57.365Z,2.90
2017-12-27T04:36:25.820Z,3.35
2017-12-27T04:38:54.232Z,2.55
2017-12-27T04:41:22.254Z,2.55
2017-12-27T04:43:50.320Z,3.17
2017-12-27T04:46:19.144Z,2.30
2017-12-27T04:48:47.208Z,3.15
2017-12-27T04:51:15.262Z,2.35
2017-12-27T04:53:43.295Z,2.65
2017-12-27T04:56:11.340Z,2.58
2017-12-27T04:58:39.368Z,2.58
2017-12-27T05:01:07.425Z,2.45
2017-12-27T05:03:35.456Z,3.08
2017-12-27T05:06:03.484Z,2.55
2017-12-27T05:08:32.300Z,3.20
2017-12-27T05:11:00.335Z,3.25
2017-12-27T05:13:28.385Z,2.95
2017-12-27T05:15:56.416Z,3.25
2017-12-27T05:18:24.484Z,3.55
2017-12-27T05:20:52.529Z,3.55
2017-12-27T05:23:20.567Z,3.22
2017-12-27T05:25:48.626Z,3.28
2017-12-27T05:28:17.420Z,3.30
2017-12-27T05:30:45.465Z,3.62
2017-12-27T05:33:13.528Z,3.50
2017-12-27T05:35:41.577Z,3.12
2017-12-27T05:38:09.700Z,4.57
2017-12-27T05:40:38.636Z,3.17
2017-12-27T05:43:06.664Z,2.85
2017-12-27T05:45:36.308Z,4.22
2017-12-27T05:48:05.120Z,3.35
2017-12-27T05:50:33.920Z,3.60
2017-12-27T05:53:02.787Z,4.07
2017-12-27T05:55:30.807Z,4.20
2017-12-27T05:57:58.839Z,3.30
2017-12-27T06:00:26.889Z,3.17
2017-12-27T06:02:55.784Z,3.85
2017-12-27T06:05:24.623Z,3.53
2017-12-27T06:07:52.717Z,3.30
2017-12-27T06:10:20.747Z,4.37
2017-12-27T06:12:49.565Z,3.22
2017-12-27T06:15:17.604Z,3.17
2017-12-27T06:17:45.664Z,3.95
2017-12-27T06:20:13.796Z,3.30
2017-12-27T06:22:42.600Z,3.80
2017-12-27T06:25:11.415Z,3.08
2017-12-27T06:27:39.457Z,3.53
2017-12-27T06:30:07.606Z,4.22
2017-12-27T06:32:35.628Z,3.00
2017-12-27T06:35:03.665Z,3.65
2017-12-27T06:37:31.713Z,3.28
2017-12-27T06:40:00.636Z,3.72
2017-12-27T06:42:28.700Z,3.33
2017-12-27T06:44:56.728Z,3.55
2017-12-27T06:47:24.922Z,4.62
2017-12-27T06:49:52.940Z,3.92
2017-12-27T06:52:20.973Z,3.65
2017-12-27T06:54:49.032Z,3.42
2017-12-27T06:57:17.832Z,3.12
2017-12-27T06:59:46.656Z,3.10
2017-12-27T07:02:14.688Z,3.58
2017-12-27T07:04:43.567Z,3.55
2017-12-27T07:07:11.655Z,2.75
2017-12-27T07:09:39.682Z,2.85
2017-12-27T07:12:08.530Z,3.87
2017-12-27T07:14:36.552Z,5.43
2017-12-27T07:17:05.356Z,3.85
2017-12-27T07:19:33.448Z,3.42
2017-12-27T07:22:01.494Z,3.33
2017-12-27T07:24:29.516Z,3.78
2017-12-27T07:26:58.327Z,4.18
2017-12-27T07:29:27.120Z,3.65
2017-12-27T07:31:55.945Z,3.53
2017-12-27T07:34:23.974Z,3.70
2017-12-27T07:36:52.000Z,3.20
2017-12-27T07:39:20.811Z,3.35
2017-12-27T07:41:48.844Z,4.00
2017-12-27T07:44:16.892Z,3.50
2017-12-27T07:46:44.962Z,6.70
2017-12-27T07:49:14.593Z,4.22
2017-12-27T07:51:42.804Z,4.90
2017-12-27T07:54:10.836Z,4.18
2017-12-27T07:56:39.657Z,4.35
2017-12-27T07:59:08.139Z,4.20
2017-12-27T08:01:37.100Z,4.22
2017-12-27T08:04:05.952Z,3.97
2017-12-27T08:06:34.740Z,4.30
2017-12-27T08:09:03.596Z,3.70
2017-12-27T08:11:31.611Z,4.25
2017-12-27T08:13:59.640Z,4.28
2017-12-27T08:16:27.708Z,4.05
2017-12-27T08:18:55.744Z,4.20
2017-12-27T08:21:23.780Z,5.22
2017-12-27T08:23:51.820Z,4.70
2017-12-27T08:26:19.892Z,3.85
2017-12-27T08:28:47.923Z,4.47
2017-12-27T08:31:15.968Z,5.70
2017-12-27T08:33:44.016Z,5.40
2017-12-27T08:36:12.548Z,5.18
2017-12-27T08:38:40.592Z,4.70
2017-12-27T08:41:08.624Z,4.32
2017-12-27T08:43:36.701Z,5.97
2017-12-27T08:46:04.736Z,4.57
2017-12-27T08:48:32.773Z,4.50
2017-12-27T08:51:00.833Z,5.28
2017-12-27T08:53:28.869Z,4.72
2017-12-27T08:55:57.701Z,5.03
2017-12-27T08:58:25.943Z,4.97
2017-12-27T09:00:53.972Z,4.37
2017-12-27T09:03:22.020Z,5.20
2017-12-27T09:05:50.808Z,6.00
2017-12-27T09:08:18.868Z,4.65
2017-12-27T09:10:46.910Z,4.32
2017-12-27T09:13:14.944Z,4.25
2017-12-27T09:15:43.003Z,5.97
2017-12-27T09:18:11.034Z,4.65
2017-12-27T09:20:39.869Z,5.10
2017-12-27T09:23:07.901Z,5.30
2017-12-27T09:25:35.948Z,3.75
2017-12-27T09:28:04.001Z,4.75
2017-12-27T09:30:32.784Z,4.70
2017-12-27T09:33:01.621Z,4.45
2017-12-27T09:35:30.500Z,4.90
2017-12-27T09:37:59.296Z,5.50
2017-12-27T09:40:28.148Z,4.05
2017-12-27T09:42:56.176Z,4.82
2017-12-27T09:45:25.680Z,5.12
2017-12-27T09:47:53.804Z,4.82
2017-12-27T09:50:21.846Z,4.60
2017-12-27T09:52:50.644Z,4.10
2017-12-27T09:55:18.664Z,4.35
2017-12-27T09:57:47.505Z,4.05
2017-12-27T10:00:15.524Z,3.12
2017-12-27T10:02:43.578Z,3.95
2017-12-27T10:05:11.648Z,3.45
2017-12-27T10:07:39.704Z,4.20
2017-12-27T10:10:07.736Z,4.32
2017-12-27T10:12:35.812Z,3.83
2017-12-27T10:15:03.847Z,3.08
2017-12-27T10:17:32.644Z,2.95
2017-12-27T10:20:01.450Z,2.60
2017-12-27T10:22:31.600Z,2.95
2017-12-27T10:24:59.652Z,2.55
2017-12-27T10:27:27.684Z,2.22
2017-12-27T10:29:56.472Z,2.70
2017-12-27T10:32:24.524Z,2.70
2017-12-27T10:34:53.328Z,2.12
2017-12-27T10:37:22.148Z,2.55
2017-12-27T10:39:50.188Z,2.15
2017-12-27T10:42:18.251Z,2.42
2017-12-27T10:44:46.332Z,2.08
2017-12-27T10:47:14.345Z,1.90
2017-12-27T10:49:42.409Z,1.70
2017-12-27T10:52:11.217Z,2.53
2017-12-27T10:54:39.269Z,2.85
2017-12-27T10:57:07.300Z,3.20
2017-12-27T10:59:35.361Z,2.70
2017-12-27T11:02:03.384Z,3.05
2017-12-27T11:04:32.176Z,4.10
2017-12-27T11:07:00.236Z,2.70
2017-12-27T11:09:28.264Z,3.65
2017-12-27T11:11:57.087Z,4.32
2017-12-27T11:14:25.156Z,4.28
2017-12-27T11:16:53.200Z,3.97
2017-12-27T11:19:21.245Z,4.30
2017-12-27T11:21:49.344Z,5.15
2017-12-27T11:24:18.140Z,3.60
2017-12-27T11:26:46.213Z,4.60
2017-12-27T11:29:14.268Z,3.35
2017-12-27T11:31:43.065Z,3.33
2017-12-27T11:34:11.912Z,3.87
2017-12-27T11:36:40.285Z,3.30
2017-12-27T11:39:08.309Z,3.10
2017-12-27T11:41:36.348Z,3.22
2017-12-27T11:44:04.380Z,3.78
2017-12-27T11:46:32.483Z,3.25
2017-12-27T11:49:01.300Z,4.05
2017-12-27T11:51:30.121Z,4.47
2017-12-27T11:53:58.152Z,3.10
2017-12-27T11:56:26.177Z,3.20
2017-12-27T11:58:54.336Z,3.72
2017-12-27T12:01:22.402Z,3.80
2017-12-27T12:03:50.410Z,3.62
2017-12-27T12:06:19.253Z,3.78
2017-12-27T12:08:47.276Z,3.58
2017-12-27T12:11:15.319Z,3.70
2017-12-27T12:13:43.376Z,3.30
2017-12-27T12:16:12.168Z,4.50
2017-12-27T12:18:40.957Z,4.45
2017-12-27T12:21:09.029Z,4.55
2017-12-27T12:23:37.056Z,4.65
2017-12-27T12:26:05.106Z,3.87
2017-12-27T12:28:33.167Z,3.83
2017-12-27T12:31:01.296Z,3.50
2017-12-27T12:33:30.084Z,4.30
2017-12-27T12:35:58.152Z,3.87
2017-12-27T12:38:26.181Z,3.47
2017-12-27T12:40:54.208Z,3.45
2017-12-27T12:43:22.262Z,4.20
2017-12-27T12:45:50.286Z,3.00
2017-12-27T12:48:18.368Z,3.85
2017-12-27T12:50:46.392Z,3.30
2017-12-27T12:53:14.432Z,3.72
2017-12-27T12:55:42.517Z,3.80
2017-12-27T12:58:10.605Z,4.25
2017-12-27T13:00:38.646Z,4.45
2017-12-27T13:03:06.687Z,3.55
2017-12-27T13:05:35.483Z,3.92
2017-12-27T13:08:03.536Z,3.90
2017-12-27T13:10:31.567Z,3.05
2017-12-27T13:13:00.396Z,2.95
2017-12-27T13:15:28.423Z,4.18
2017-12-27T13:17:56.451Z,4.07
2017-12-27T13:20:25.044Z,4.28
2017-12-27T13:22:53.085Z,4.00
2017-12-27T13:25:21.119Z,4.40
2017-12-27T13:27:49.187Z,3.50
2017-12-27T13:30:17.992Z,3.50
2017-12-27T13:32:46.028Z,4.30
2017-12-27T13:35:14.132Z,4.00
2017-12-27T13:37:42.164Z,4.35
2017-12-27T13:40:10.196Z,4.25
2017-12-27T13:42:38.300Z,3.60
2017-12-27T13:45:07.097Z,3.58
2017-12-27T13:47:35.124Z,4.20
2017-12-27T13:50:03.201Z,3.92
2017-12-27T13:52:31.233Z,4.18
2017-12-27T13:54:59.268Z,3.58
2017-12-27T13:57:27.309Z,3.58
2017-12-27T13:59:55.376Z,3.60
2017-12-27T14:02:23.412Z,5.00
2017-12-27T14:04:51.454Z,4.12
2017-12-27T14:07:19.501Z,4.00
2017-12-27T14:09:47.664Z,4.10
2017-12-27T14:12:15.697Z,3.92
2017-12-27T14:14:43.733Z,4.70
2017-12-27T14:17:11.804Z,4.30
2017-12-27T14:19:39.846Z,5.25
2017-12-27T14:22:07.866Z,5.03
2017-12-27T14:24:36.708Z,4.95
2017-12-27T14:27:04.767Z,5.28
2017-12-27T14:29:32.756Z,4.78
2017-12-27T14:32:00.825Z,5.25
2017-12-27T14:34:28.908Z,4.70
2017-12-27T14:36:56.956Z,5.20
2017-12-27T14:39:25.036Z,4.62
2017-12-27T14:41:53.066Z,4.93
2017-12-27T14:44:21.097Z,4.20
2017-12-27T14:46:49.165Z,4.57
2017-12-27T14:49:17.210Z,4.70
2017-12-27T14:51:45.244Z,4.15
2017-12-27T14:54:13.304Z,4.53
2017-12-27T14:56:41.320Z,4.20
2017-12-27T14:59:09.388Z,4.95
2017-12-27T15:01:37.660Z,4.35
2017-12-27T15:04:05.688Z,3.03
2017-12-27T15:06:33.771Z,4.68
2017-12-27T15:09:02.703Z,4.18
2017-12-27T15:11:30.732Z,4.93
2017-12-27T15:13:58.795Z,4.50
2017-12-27T15:16:26.825Z,4.40
2017-12-27T15:18:54.853Z,4.18
2017-12-27T15:21:22.917Z,4.20
2017-12-27T15:23:51.728Z,5.15
2017-12-27T15:26:19.766Z,4.60
2017-12-27T15:28:47.848Z,4.65
2017-12-27T15:31:15.901Z,4.95
2017-12-27T15:33:43.920Z,5.32
2017-12-27T15:36:12.132Z,5.22
2017-12-27T15:38:40.946Z,5.82
2017-12-27T15:41:09.748Z,5.55
2017-12-27T15:43:38.589Z,5.30
2017-12-27T15:46:06.632Z,4.55
2017-12-27T15:48:35.443Z,4.93
2017-12-27T15:51:03.520Z,5.30
2017-12-27T15:53:32.317Z,5.45
2017-12-27T15:56:01.168Z,5.80
2017-12-27T15:58:29.203Z,4.10
2017-12-27T16:00:58.052Z,5.62
2017-12-27T16:03:26.124Z,4.68
2017-12-27T16:05:54.179Z,5.37
2017-12-27T16:08:22.203Z,4.62
2017-12-27T16:10:50.267Z,4.40
2017-12-27T16:13:18.336Z,5.10
2017-12-27T16:15:47.172Z,4.47
2017-12-27T16:18:15.211Z,5.35
2017-12-27T16:20:44.856Z,4.80
2017-12-27T16:23:12.969Z,5.10
2017-12-27T16:25:41.041Z,4.90
2017-12-27T16:28:09.074Z,6.28
2017-12-27T16:30:37.156Z,5.45
2017-12-27T16:33:05.957Z,5.90
2017-12-27T16:35:34.768Z,4.07
2017-12-27T16:38:03.568Z,5.28
2017-12-27T16:40:32.404Z,4.85
2017-12-27T16:43:00.436Z,5.32
2017-12-27T16:45:28.470Z,6.32
2017-12-27T16:47:56.568Z,5.37
2017-12-27T16:50:24.592Z,5.10
2017-12-27T16:52:52.616Z,5.40
2017-12-27T16:55:21.579Z,5.07
2017-12-27T16:57:49.612Z,6.15
2017-12-27T17:00:17.701Z,6.47
2017-12-27T17:02:45.739Z,6.72
2017-12-27T17:05:14.540Z,5.50
2017-12-27T17:07:43.352Z,6.25
2017-12-27T17:10:12.188Z,6.18
2017-12-27T17:12:41.055Z,6.40
2017-12-27T17:15:09.076Z,6.20
2017-12-27T17:17:37.146Z,6.28
2017-12-27T17:20:05.230Z,7.30
2017-12-27T17:22:33.257Z,5.32
2017-12-27T17:25:01.324Z,5.97
2017-12-27T17:27:30.307Z,5.45
2017-12-27T17:29:58.329Z,4.97
2017-12-27T17:32:26.385Z,4.47
2017-12-27T17:34:54.469Z,5.37
2017-12-27T17:37:23.000Z,4.93
2017-12-27T17:39:51.023Z,5.30
2017-12-27T17:42:19.860Z,5.95
2017-12-27T17:44:47.889Z,6.00
2017-12-27T17:47:16.672Z,5.60
2017-12-27T17:49:44.753Z,5.30
2017-12-27T17:52:13.589Z,5.87
2017-12-27T17:54:42.392Z,5.53
2017-12-27T17:57:11.212Z,5.80
2017-12-27T17:59:39.236Z,5.00
2017-12-27T18:02:07.325Z,5.55
2017-12-27T18:04:35.364Z,5.40
2017-12-27T18:07:03.400Z,4.93
2017-12-27T18:09:31.494Z,5.82
2017-12-27T18:11:59.520Z,5.18
2017-12-27T18:14:27.550Z,5.15
2017-12-27T18:16:55.612Z,5.60
2017-12-27T18:19:23.644Z,5.15
2017-12-27T18:21:52.458Z,5.70
2017-12-27T18:24:20.542Z,5.32
2017-12-27T18:26:48.584Z,5.07
2017-12-27T18:29:16.628Z,5.35
2017-12-27T18:31:44.699Z,6.03
2017-12-27T18:34:12.720Z,5.15
2017-12-27T18:36:40.765Z,5.55
2017-12-27T18:39:08.808Z,5.85
2017-12-27T18:41:36.849Z,5.43
2017-12-27T18:44:04.893Z,4.90
2017-12-27T18:46:34.179Z,5.10
2017-12-27T18:49:02.422Z,6.07
2017-12-27T18:51:30.497Z,5.45
2017-12-27T18:53:58.489Z,5.22
2017-12-27T18:56:26.564Z,6.32
2017-12-27T18:58:54.597Z,4.90
2017-12-27T19:01:22.628Z,5.40
2017-12-27T19:03:50.709Z,5.90
2017-12-27T19:06:19.509Z,5.93
2017-12-27T19:08:47.564Z,6.25
2017-12-27T19:11:15.596Z,6.78
2017-12-27T19:13:43.668Z,6.40
2017-12-27T19:16:11.708Z,5.50
2017-12-27T19:18:39.743Z,5.55
2017-12-27T19:21:07.812Z,7.53
2017-12-27T19:23:35.844Z,6.00
2017-12-27T19:26:03.873Z,5.75
2017-12-27T19:28:32.712Z,6.78
2017-12-27T19:31:00.790Z,5.75
2017-12-27T19:33:29.228Z,7.00
2017-12-27T19:35:57.299Z,6.80
2017-12-27T19:38:25.332Z,6.85
2017-12-27T19:40:53.375Z,7.97
2017-12-27T19:43:21.446Z,8.07
2017-12-27T19:45:49.484Z,8.10
2017-12-27T19:48:17.520Z,7.35
2017-12-27T19:50:45.592Z,7.45
2017-12-27T19:53:15.453Z,7.55
2017-12-27T19:55:43.468Z,8.20
2017-12-27T19:58:11.693Z,7.78
2017-12-27T20:00:40.484Z,8.38
2017-12-27T20:03:08.512Z,7.50
2017-12-27T20:05:38.105Z,10.40
2017-12-27T20:08:06.141Z,8.05
2017-12-27T20:10:34.187Z,8.18
2017-12-27T20:13:02.280Z,8.85
2017-12-27T20:15:31.068Z,8.35
2017-12-27T20:17:59.116Z,8.23
2017-12-27T20:20:27.168Z,9.85
2017-12-27T20:22:55.933Z,9.02
2017-12-27T20:25:23.995Z,15.15
2017-12-27T20:27:52.033Z,37.47
2017-12-27T20:30:20.869Z,9.40
2017-12-27T20:32:48.904Z,10.38
2017-12-27T20:35:17.710Z,9.43
2017-12-27T20:37:46.534Z,9.20
2017-12-27T20:40:14.569Z,9.23
2017-12-27T20:42:42.654Z,8.98
2017-12-27T20:45:10.732Z,9.20
2017-12-27T20:47:38.759Z,9.30
2017-12-27T20:50:06.801Z,11.45
2017-12-27T20:52:34.928Z,10.48
2017-12-27T20:55:02.963Z,9.93
2017-12-27T20:57:31.014Z,10.15
2017-12-27T20:59:59.461Z,11.70
2017-12-27T21:02:27.503Z,10.40
2017-12-27T21:04:55.552Z,9.57
2017-12-27T21:07:23.643Z,11.80
2017-12-27T21:09:52.440Z,10.50
2017-12-27T21:12:20.480Z,9.88
2017-12-27T21:14:48.591Z,9.98
2017-12-27T21:17:17.397Z,11.50
2017-12-27T21:19:46.192Z,9.57
2017-12-27T21:22:16.080Z,9.68
2017-12-27T21:24:44.112Z,18.80
2017-12-27T21:27:12.923Z,12.90
2017-12-27T21:29:40.993Z,10.77
2017-12-27T21:32:09.794Z,11.20
2017-12-27T21:34:38.641Z,9.63
2017-12-27T21:37:06.676Z,9.52
2017-12-27T21:39:35.487Z,12.05
2017-12-27T21:42:04.340Z,9.70
2017-12-27T21:44:32.376Z,10.45
2017-12-27T21:47:00.416Z,9.23
2017-12-27T21:49:34.188Z,10.60
2017-12-27T21:52:02.224Z,10.30
2017-12-27T21:54:31.104Z,9.45
2017-12-27T21:56:59.141Z,9.68
2017-12-27T21:59:33.613Z,9.68
2017-12-27T22:02:01.644Z,9.65
2017-12-27T22:04:29.680Z,10.25
2017-12-27T22:06:57.783Z,10.70
2017-12-27T22:09:25.823Z,11.23
2017-12-27T22:11:53.862Z,25.02
2017-12-27T22:14:21.920Z,18.77
2017-12-27T22:16:49.981Z,9.70
2017-12-27T22:19:18.068Z,10.57
2017-12-27T22:21:46.109Z,9.43
2017-12-27T22:24:14.208Z,11.55
2017-12-27T22:26:43.032Z,11.38
2017-12-27T22:29:11.111Z,10.30
2017-12-27T22:31:39.959Z,12.13
2017-12-27T22:34:07.989Z,10.75
2017-12-27T22:36:36.796Z,10.85
2017-12-27T22:39:05.636Z,11.23
2017-12-27T22:41:33.664Z,10.95
2017-12-27T22:44:02.493Z,11.52
2017-12-27T22:46:30.587Z,24.23
2017-12-27T22:48:58.623Z,14.07
2017-12-27T22:51:26.699Z,10.73
2017-12-27T22:53:54.741Z,9.77
2017-12-27T22:56:22.893Z,10.15
2017-12-27T22:58:51.776Z,10.55
2017-12-27T23:01:19.805Z,10.30
2017-12-27T23:03:48.640Z,9.27
2017-12-27T23:06:17.501Z,9.70
2017-12-27T23:08:45.554Z,8.93
2017-12-27T23:11:13.588Z,11.50
2017-12-27T23:13:41.652Z,10.40
2017-12-27T23:16:09.685Z,9.60
2017-12-27T23:18:37.716Z,9.50
2017-12-27T23:21:06.401Z,9.38
2017-12-27T23:23:34.424Z,10.02
2017-12-27T23:26:02.459Z,14.57
2017-12-27T23:28:30.529Z,16.92
2017-12-27T23:30:58.556Z,9.85
2017-12-27T23:33:26.596Z,10.15
2017-12-27T23:35:54.679Z,10.02
2017-12-27T23:38:22.752Z,10.55
2017-12-27T23:40:50.812Z,10.55
2017-12-27T23:43:18.916Z,9.13
2017-12-27T23:45:47.724Z,11.12
2017-12-27T23:48:15.820Z,11.18
2017-12-27T23:50:43.896Z,10.73
2017-12-27T23:53:12.708Z,12.65
2017-12-27T23:55:41.587Z,9.77
2017-12-27T23:58:09.624Z,10.70
